Old Brazoria, Texas
Current Conditions -  °F | °C
As of 6:53 PM on Sunday 21 Dec 2014 (Local Time) from KLBX Reporting Station
Broken Clouds Broken Clouds  
Wind Chill: 56°   Ceiling: 6500
Heat Index: 56°   Visibility: 10mi
Dew Point: 54°   Wind: 8mph
Humidity: 93%   Direction: 90°E
Pressure: 29.93"   Gusts: NA
Location:  28.9272°N, 95.5834°W
Report Text: KLBX 220053Z AUTO 09007KT 10SM BKN065 13/12 A2993 RMK AO2 SLP135 T01330122
Loading
Personal Weather Stations






























Interactive Weather Map New forecast layout! Learn more

10-Day Weather Forecast

Advertisements
Track Severe Weather on mobile